Latest Weather Observations for Thargomindah

IDQ60801

Issued at 5:31 pm EST Saturday 1 August 2015 (issued every 30 minutes, with the page automatically refreshed every 10 minutes)

About weather observations | Map of weather stations | Latest weather observations for QLD | Other Formats
Station Details ID: 045025 Name: THARGOMINDAH AIRPORT Lat: -27.99 Lon: 143.81 Height: 130.89 m
Data from the previous 72 hours. | See also: Recent months at Thargomindah
Date/Time
EST
Temp
°C
App
Temp
°C
Dew
Point
Rel
Hum
%
Delta-T
°C
Wind Press
QNH
hPa
Press
MSL
hPa
Rain
since 9 am
mm
Dir
 
Spd
km/h
Gust
km/h
Spd
kts
Gust
kts
01/05:30pm 26.6 22.1 -0.4 17 12.5 WNW 13 19 7 10 1017.2 - 0.0
01/05:00pm 27.3 22.4 -0.7 16 13.0 NW 15 20 8 11 1017.2 - 0.0
01/04:30pm 27.6 22.7 -0.5 16 13.1 NW 15 20 8 11 1017.2 - 0.0
01/04:00pm 27.7 21.9 -0.4 16 13.2 NW 20 30 11 16 1017.3 - 0.0
01/03:30pm 27.4 22.1 -0.6 16 13.1 NW 17 28 9 15 1017.4 - 0.0
01/03:00pm 28.0 21.7 -1.0 15 13.5 WNW 22 32 12 17 1017.6 1017.3 0.0
01/02:30pm 27.6 21.6 -1.3 15 13.3 WNW 20 30 11 16 1017.8 - 0.0
01/02:00pm 27.7 21.9 -0.4 16 13.2 NW 20 30 11 16 1018.1 - 0.0
01/01:30pm 27.5 21.5 -1.4 15 13.3 NW 20 28 11 15 1018.6 - 0.0
01/01:00pm 27.0 21.2 -1.8 15 13.1 NNW 19 33 10 18 1019.1 - 0.0
01/12:30pm 26.0 19.9 -2.6 15 12.7 N 20 28 11 15 1019.6 - 0.0
01/12:00pm 25.8 19.9 -1.9 16 12.4 N 19 28 10 15 1020.2 1020.1 0.0
01/11:30am 24.8 19.1 -1.1 18 11.7 N 19 26 10 14 1020.7 - 0.0
01/11:00am 24.0 18.2 -0.3 20 11.1 N 20 28 11 15 1021.0 - 0.0
01/10:30am 22.0 15.1 -0.1 23 10.0 NNE 26 30 14 16 1021.2 - 0.0
01/10:00am 20.2 14.4 0.1 26 9.0 NNE 20 26 11 14 1021.2 - 0.0
01/09:30am 18.4 11.9 0.1 29 8.0 NNE 24 32 13 17 1021.0 - 0.0
01/09:00am 16.2 11.0 -0.1 33 7.0 NNE 17 22 9 12 1021.1 1020.9 0.0
01/08:30am 12.6 9.0 0.4 43 5.1 NNE 9 11 5 6 1020.9 - 0.0
01/08:00am 11.0 8.0 0.7 49 4.3 ENE 6 7 3 4 1020.7 - 0.0
01/07:30am 9.6 6.5 0.2 52 3.8 ENE 6 7 3 4 1020.4 - 0.0
01/07:00am 9.4 6.1 0.1 52 3.7 NE 7 9 4 5 1019.9 - 0.0
01/06:30am 9.5 5.8 0.1 52 3.8 NNE 9 11 5 6 1019.7 - 0.0
01/06:00am 10.0 6.3 0.1 50 4.0 NNE 9 11 5 6 1019.5 1019.3 0.0
01/05:30am 10.4 6.7 -0.1 48 4.3 NNE 9 9 5 5 1019.2 - 0.0
01/05:00am 10.8 6.7 -0.3 46 4.5 NNE 11 13 6 7 1019.1 - 0.0
01/04:30am 11.0 6.5 -0.5 45 4.6 NNE 13 13 7 7 1019.1 - 0.0
01/04:00am 10.4 6.3 -0.1 48 4.3 NE 11 13 6 7 1019.5 - 0.0
01/03:30am 9.7 5.9 -0.5 49 4.1 NE 9 11 5 6 1019.8 - 0.0
01/03:00am 10.1 6.7 -0.7 47 4.3 NE 7 9 4 5 1020.0 1019.8 0.0
01/02:30am 10.5 6.6 -1.2 44 4.6 NE 9 9 5 5 1020.3 - 0.0
01/02:00am 11.5 7.7 -0.6 43 4.9 NE 9 11 5 6 1020.6 - 0.0
01/01:30am 11.4 7.3 -0.1 45 4.7 NE 11 13 6 7 1020.7 - 0.0
01/01:00am 11.3 7.5 -0.5 44 4.8 NNE 9 11 5 6 1021.1 - 0.0
01/12:30am 10.6 6.5 0.1 48 4.3 NE 11 11 6 6 1021.1 - 0.0
01/12:00am 10.5 7.1 -0.6 46 4.4 NE 7 11 4 6 1021.4 1021.3 0.0
 
Date/Time
EST
Temp
°C
App
Temp
°C
Dew
Point
Rel
Hum
%
Delta-T
°C
Wind Press
QNH
hPa
Press
MSL
hPa
Rain
since 9 am
mm
Dir
 
Spd
km/h
Gust
km/h
Spd
kts
Gust
kts
31/11:30pm 10.8 7.4 -0.3 46 4.5 NE 7 9 4 5 1021.6 - 0.0
31/11:00pm 11.2 7.8 -0.9 43 4.9 NE 7 9 4 5 1021.6 - 0.0
31/10:30pm 11.6 7.9 0.1 45 4.7 NE 9 11 5 6 1021.6 - 0.0
31/10:00pm 11.8 8.4 -0.7 42 5.1 NE 7 9 4 5 1021.7 - 0.0
31/09:30pm 12.3 8.5 -0.9 40 5.4 ENE 9 9 5 5 1021.5 - 0.0
31/09:00pm 12.9 9.0 -1.4 37 5.8 ENE 9 9 5 5 1021.4 1021.3 0.0
31/08:30pm 14.0 10.7 -1.6 34 6.3 NE 6 7 3 4 1021.2 - 0.0
31/08:00pm 14.8 12.6 -1.3 33 6.6 CALM 0 0 0 0 1021.0 - 0.0
31/07:30pm 15.9 13.6 -2.1 29 7.4 CALM 0 0 0 0 1020.7 - 0.0
31/07:00pm 17.5 15.2 -2.2 26 8.2 CALM 0 0 0 0 1020.4 - 0.0
31/06:30pm 19.5 16.8 -2.8 22 9.3 WNW 2 6 1 3 1020.3 - 0.0
31/06:00pm 21.4 17.5 -4.6 17 10.6 NW 7 7 4 4 1020.2 1020.1 0.0
31/05:30pm 23.3 18.6 -4.8 15 11.7 NW 11 13 6 7 1020.1 - 0.0
31/05:00pm 23.9 19.7 -4.3 15 11.9 W 9 15 5 8 1020.2 - 0.0
31/04:30pm 24.1 19.5 -4.1 15 12.0 W 11 19 6 10 1020.2 - 0.0
31/04:00pm 24.4 20.2 -3.9 15 12.1 WNW 9 17 5 9 1020.2 - 0.0
31/03:30pm 24.1 19.0 -5.0 14 12.2 WNW 13 20 7 11 1020.3 - 0.0
31/03:00pm 23.9 19.7 -4.3 15 11.9 NNW 9 19 5 10 1020.6 1020.5 0.0
31/02:30pm 23.7 18.4 -3.6 16 11.7 WNW 15 22 8 12 1020.8 - 0.0
31/02:00pm 23.0 17.6 -4.1 16 11.4 NW 15 20 8 11 1021.0 - 0.0
31/01:30pm 22.7 18.3 -2.8 18 11.0 W 11 19 6 10 1021.5 - 0.0
31/01:00pm 22.2 18.1 -3.2 18 10.8 N 9 17 5 9 1021.9 - 0.0
31/12:30pm 22.5 18.9 -2.2 19 10.7 N 7 11 4 6 1022.5 - 0.0
31/12:00pm 21.6 18.0 -3.7 18 10.6 N 6 11 3 6 1023.1 1023.0 0.0
31/11:30am 20.7 17.3 -2.4 21 9.8 NNE 6 9 3 5 1023.6 - 0.0
31/11:00am 18.9 16.4 -1.0 26 8.6 N 2 6 1 3 1024.1 - 0.0
31/10:30am 17.8 15.8 0.0 30 7.8 CALM 0 0 0 0 1024.3 - 0.0
31/10:00am 15.5 13.5 0.1 35 6.6 CALM 0 0 0 0 1024.5 - 0.0
31/09:30am 13.7 10.5 -0.3 38 5.8 N 6 7 3 4 1024.6 - 0.0
31/09:00am 12.0 8.9 0.1 44 4.9 E 6 7 3 4 1024.4 1024.2 0.0
31/08:30am 9.5 7.4 -0.7 49 4.0 CALM 0 0 0 0 1024.2 - 0.0
31/08:00am 7.2 5.2 0.0 60 2.8 CALM 0 0 0 0 1023.9 - 0.0
31/07:30am 5.3 3.3 -0.3 67 2.1 CALM 0 0 0 0 1023.4 - 0.0
31/07:00am 4.6 2.5 -1.0 67 2.1 CALM 0 0 0 0 1022.9 - 0.0
31/06:30am 5.1 3.0 -0.7 66 2.2 CALM 0 0 0 0 1022.4 - 0.0
31/06:00am 5.1 2.3 -0.7 66 2.2 SSE 4 6 2 3 1022.4 1022.2 0.0
31/05:30am 6.1 3.1 0.6 68 2.2 S 6 7 3 4 1022.4 - 0.0
31/05:00am 5.3 2.1 -0.3 67 2.1 SSW 6 6 3 3 1022.2 - 0.0
31/04:30am 5.7 2.5 -0.4 65 2.3 S 6 6 3 3 1021.9 - 0.0
31/04:00am 6.4 3.1 -0.1 63 2.5 SSW 7 9 4 5 1022.1 - 0.0
31/03:30am 6.4 4.4 0.1 64 2.5 CALM 0 0 0 0 1022.3 - 0.0
31/03:00am 6.8 4.8 0.0 62 2.6 CALM 0 0 0 0 1022.4 1022.3 0.0
31/02:30am 7.0 5.1 0.5 63 2.6 CALM 0 0 0 0 1022.3 - 0.0
31/02:00am 7.5 5.7 0.9 63 2.7 CALM 0 0 0 0 1022.5 - 0.0
31/01:30am 7.7 5.7 0.0 58 3.0 CALM 0 0 0 0 1022.6 - 0.0
31/01:00am 7.7 5.6 -0.5 56 3.2 CALM 0 0 0 0 1022.9 - 0.0
31/12:30am 8.3 6.3 -0.2 55 3.4 CALM 0 0 0 0 1022.7 - 0.0
31/12:00am 9.1 7.1 0.0 53 3.6 CALM 0 0 0 0 1023.0 1023.0 0.0
 
Date/Time
EST
Temp
°C
App
Temp
°C
Dew
Point
Rel
Hum
%
Delta-T
°C
Wind Press
QNH
hPa
Press
MSL
hPa
Rain
since 9 am
mm
Dir
 
Spd
km/h
Gust
km/h
Spd
kts
Gust
kts
30/11:30pm 10.4 7.6 -0.1 48 4.3 SSE 4 7 2 4 1023.1 - 0.0
30/11:00pm 10.8 8.7 -0.6 45 4.6 CALM 0 6 0 3 1023.4 - 0.0
30/10:30pm 11.5 7.0 0.0 45 4.7 NNE 13 15 7 8 1023.1 - 0.0
30/10:00pm 10.8 7.0 -0.6 45 4.6 N 9 11 5 6 1023.4 - 0.0
30/09:30pm 11.6 8.2 -0.5 43 4.9 N 7 9 4 5 1023.2 - 0.0
30/09:00pm 13.4 9.7 0.1 40 5.6 W 9 11 5 6 1023.1 1023.1 0.0
30/08:30pm 12.8 9.4 -0.4 40 5.4 NNW 7 9 4 5 1023.2 - 0.0
30/08:00pm 13.9 10.7 0.9 41 5.6 N 7 9 4 5 1023.0 - 0.0
30/07:30pm 14.6 11.3 -1.1 34 6.5 N 6 7 3 4 1023.0 - 0.0
30/07:00pm 15.6 13.5 -0.6 33 6.8 CALM 0 0 0 0 1022.8 - 0.0
30/06:30pm 17.6 14.6 -2.1 26 8.2 WNW 4 6 2 3 1022.6 - 0.0
30/06:00pm 20.0 16.4 -2.3 22 9.4 W 7 9 4 5 1022.5 1022.4 0.0
30/05:30pm 21.8 17.4 -2.8 19 10.5 W 11 15 6 8 1022.5 - 0.0
30/05:00pm 22.5 17.3 -3.0 18 10.9 WNW 15 20 8 11 1022.5 - 0.0
30/04:30pm 23.0 17.9 -1.8 19 10.9 WNW 15 20 8 11 1022.5 - 0.0
30/04:00pm 23.2 17.6 -3.2 17 11.3 NW 17 24 9 13 1022.5 - 0.0
30/03:30pm 23.4 17.9 -2.2 18 11.2 WNW 17 26 9 14 1022.7 - 0.0
30/03:00pm 22.9 17.7 0.1 22 10.4 NW 17 22 9 12 1023.1 1023.0 0.0
30/02:30pm 23.2 17.7 0.9 23 10.4 WNW 19 28 10 15 1023.4 - 0.0
30/02:00pm 22.5 16.0 0.4 23 10.1 NW 24 37 13 20 1023.9 - 0.0
30/01:30pm 21.7 17.1 1.4 26 9.4 NW 15 22 8 12 1024.2 - 0.0
30/01:00pm 20.2 16.0 1.6 29 8.6 NW 13 17 7 9 1024.8 - 0.0
30/12:30pm 19.4 15.7 2.3 32 7.9 NW 11 15 6 8 1025.4 - 0.0
30/12:00pm 18.1 14.7 2.0 34 7.3 NNW 9 17 5 9 1025.8 1025.7 0.0
30/11:30am 17.5 13.8 2.3 36 6.9 N 11 15 6 8 1026.1 - 0.0
30/11:00am 16.4 13.2 2.8 40 6.2 N 9 13 5 7 1026.4 - 0.0
30/10:30am 15.1 11.8 2.3 42 5.7 NNE 9 13 5 7 1026.7 - 0.0
30/10:00am 13.5 10.1 2.1 46 5.0 NNE 9 13 5 7 1027.1 - 0.0
30/09:30am 11.7 8.2 1.4 49 4.4 NNE 9 11 5 6 1027.2 - 0.0
30/09:00am 9.5 6.0 1.2 56 3.4 ENE 9 11 5 6 1027.0 1026.9 0.0
30/08:30am 7.5 4.0 1.1 64 2.6 E 9 11 5 6 1026.8 - 0.0
30/08:00am 5.1 1.9 0.5 72 1.8 ESE 7 7 4 4 1026.6 - 0.0
30/07:30am 3.2 -0.1 0.1 80 1.2 ENE 7 9 4 5 1026.2 - 0.0
30/07:00am 2.1 -1.7 -0.8 81 1.1 NE 9 11 5 6 1026.0 - 0.0
30/06:30am 1.8 -1.6 -0.9 82 1.0 E 7 9 4 5 1025.9 - 0.0
30/06:00am 2.2 0.1 -0.5 82 1.0 CALM 0 0 0 0 1026.0 1025.9 0.0
30/05:30am 2.4 -1.0 -0.9 79 1.2 SE 7 7 4 4 1026.1 - 0.0
30/05:00am 3.3 -0.1 -0.3 77 1.3 SE 7 7 4 4 1026.1 - 0.0
30/04:30am 3.7 0.3 -0.3 75 1.5 SE 7 7 4 4 1026.1 - 0.0
30/04:00am 4.9 1.7 0.5 73 1.7 E 7 7 4 4 1026.2 - 0.0
30/03:30am 5.2 1.9 0.4 71 1.9 E 7 7 4 4 1026.3 - 0.0
30/03:00am 5.7 1.8 0.9 71 1.9 E 11 13 6 7 1026.3 1026.2 0.0
30/02:30am 5.3 1.3 0.5 71 1.9 E 11 13 6 7 1026.7 - 0.0
30/02:00am 5.7 2.5 0.5 69 2.0 E 7 9 4 5 1027.0 - 0.0
30/01:30am 6.6 3.4 0.9 67 2.3 ESE 7 9 4 5 1027.3 - 0.0
30/01:00am 7.5 3.9 0.9 63 2.7 SE 9 11 5 6 1027.6 - 0.0
30/12:30am 7.7 4.1 0.9 62 2.7 SE 9 11 5 6 1027.9 - 0.0
30/12:00am 8.1 4.1 0.8 60 2.9 S 11 13 6 7 1028.3 1028.3 0.0
 
Date/Time
EST
Temp
°C
App
Temp
°C
Dew
Point
Rel
Hum
%
Delta-T
°C
Wind Press
QNH
hPa
Press
MSL
hPa
Rain
since 9 am
mm
Dir
 
Spd
km/h
Gust
km/h
Spd
kts
Gust
kts
29/11:30pm 8.9 5.8 1.1 58 3.2 ESE 7 9 4 5 1028.2 - 0.0
29/11:00pm 9.5 6.0 1.2 56 3.4 ESE 9 11 5 6 1028.3 - 0.0
29/10:30pm 9.7 5.4 1.1 55 3.6 E 13 15 7 8 1027.7 - 0.0
29/10:00pm 9.9 6.3 0.8 53 3.7 SE 9 11 5 6 1028.6 - 0.0
29/09:30pm 10.9 7.3 0.9 50 4.2 SSE 9 11 5 6 1028.9 - 0.0
29/09:00pm 11.3 7.7 0.7 48 4.4 SSE 9 13 5 7 1028.8 1028.7 0.0
29/08:30pm 11.9 8.7 1.0 47 4.6 ESE 7 9 4 5 1028.7 - 0.0
29/08:00pm 12.3 8.7 0.7 45 4.9 SE 9 13 5 7 1028.3 - 0.0
29/07:30pm 13.2 10.0 0.9 43 5.2 ESE 7 9 4 5 1028.8 - 0.0
29/07:00pm 13.5 10.3 0.5 41 5.5 ESE 7 9 4 5 1028.3 - 0.0
29/06:30pm 14.6 11.0 0.5 38 6.0 SE 9 13 5 7 1028.3 - 0.0
29/06:00pm 15.3 12.0 -0.1 35 6.5 E 7 11 4 6 1028.0 1027.9 0.0

Other Formats:

Comma delimited format used in spreadsheet applications
http://www.bom.gov.au/fwo/IDQ60801/IDQ60801.95492.axf

JavaScript Object Notation format (JSON) in row-major order
http://www.bom.gov.au/fwo/IDQ60801/IDQ60801.95492.json